createdAt,value
2023-04-16T00:00:41.829Z,79.22
2023-04-16T00:03:09.022Z,79.09
2023-04-16T00:05:36.077Z,79.13
2023-04-16T00:08:02.457Z,78.75
2023-04-16T00:10:28.928Z,78.69
2023-04-16T00:12:55.429Z,78.92
2023-04-16T00:15:21.805Z,78.65
2023-04-16T00:17:48.192Z,78.65
2023-04-16T00:20:14.563Z,78.46
2023-04-16T00:22:41.172Z,78.93
2023-04-16T00:25:07.948Z,78.34
2023-04-16T00:27:34.376Z,78.71
2023-04-16T00:30:00.854Z,79.11
2023-04-16T00:32:27.262Z,79.45
2023-04-16T00:34:53.741Z,79.22
2023-04-16T00:37:20.445Z,78.84
2023-04-16T00:39:46.880Z,78.88
2023-04-16T00:42:13.339Z,79.48
2023-04-16T00:44:39.731Z,80.27
2023-04-16T00:47:06.074Z,80.10
2023-04-16T00:49:32.531Z,79.73
2023-04-16T00:51:58.875Z,79.79
2023-04-16T00:54:25.308Z,79.99
2023-04-16T00:56:52.409Z,79.96
2023-04-16T00:59:18.784Z,79.81
2023-04-16T01:01:45.304Z,79.52
2023-04-16T01:04:12.396Z,79.34
2023-04-16T01:06:38.961Z,79.48
2023-04-16T01:09:06.035Z,79.78
2023-04-16T01:11:32.636Z,79.98
2023-04-16T01:13:59.143Z,80.25
2023-04-16T01:16:25.539Z,80.29
2023-04-16T01:18:52.065Z,80.02
2023-04-16T01:21:18.558Z,80.59
2023-04-16T01:23:45.098Z,80.76
2023-04-16T01:26:13.688Z,80.49
2023-04-16T01:28:40.268Z,80.35
2023-04-16T01:31:06.880Z,80.32
2023-04-16T01:33:34.255Z,80.11
2023-04-16T01:36:00.658Z,80.02
2023-04-16T01:38:27.329Z,80.35
2023-04-16T01:40:53.732Z,80.04
2023-04-16T01:43:22.363Z,80.13
2023-04-16T01:45:48.748Z,80.34
2023-04-16T01:48:15.264Z,80.27
2023-04-16T01:50:41.692Z,79.70
2023-04-16T01:53:09.118Z,79.78
2023-04-16T01:55:36.494Z,79.66
2023-04-16T01:58:02.898Z,79.87
2023-04-16T02:00:29.263Z,79.14
2023-04-16T02:02:55.793Z,79.01
2023-04-16T02:05:22.341Z,79.72
2023-04-16T02:07:48.785Z,80.43
2023-04-16T02:10:15.247Z,80.32
2023-04-16T02:12:41.601Z,80.14
2023-04-16T02:15:09.067Z,80.31
2023-04-16T02:17:35.574Z,80.16
2023-04-16T02:20:02.329Z,80.28
2023-04-16T02:22:28.782Z,80.20
2023-04-16T02:24:58.070Z,79.74
2023-04-16T02:27:24.402Z,79.60
2023-04-16T02:29:50.775Z,79.45
2023-04-16T02:32:19.497Z,79.24
2023-04-16T02:34:48.380Z,79.57
2023-04-16T02:37:15.122Z,79.64
2023-04-16T02:39:43.096Z,79.51
2023-04-16T02:42:09.494Z,79.77
2023-04-16T02:44:36.015Z,78.57
2023-04-16T02:47:02.479Z,77.79
2023-04-16T02:49:29.567Z,77.85
2023-04-16T02:51:55.975Z,77.35
2023-04-16T02:54:22.428Z,77.56
2023-04-16T02:56:48.931Z,76.71
2023-04-16T02:59:15.486Z,78.50
2023-04-16T03:01:42.020Z,78.76
2023-04-16T03:04:08.456Z,78.86
2023-04-16T03:06:35.395Z,79.07
2023-04-16T03:09:01.817Z,78.96
2023-04-16T03:11:28.286Z,79.16
2023-04-16T03:13:55.252Z,79.16
2023-04-16T03:16:21.897Z,79.70
2023-04-16T03:18:54.269Z,79.88
2023-04-16T03:21:20.834Z,79.74
2023-04-16T03:23:48.731Z,79.78
2023-04-16T03:26:16.230Z,79.75
2023-04-16T03:28:42.692Z,79.16
2023-04-16T03:31:09.328Z,79.65
2023-04-16T03:33:35.717Z,79.51
2023-04-16T03:36:02.088Z,79.82
2023-04-16T03:38:28.478Z,80.05
2023-04-16T03:40:54.915Z,80.01
2023-04-16T03:43:21.359Z,80.23
2023-04-16T03:45:48.260Z,80.24
2023-04-16T03:48:14.634Z,79.80
2023-04-16T03:50:43.429Z,79.99
2023-04-16T03:53:09.889Z,79.60
2023-04-16T03:55:36.269Z,79.63
2023-04-16T03:58:02.855Z,79.83
2023-04-16T04:00:29.253Z,79.90
2023-04-16T04:02:55.895Z,79.82
2023-04-16T04:05:22.788Z,80.23
2023-04-16T04:07:49.174Z,79.75
2023-04-16T04:10:15.998Z,79.42
2023-04-16T04:12:42.478Z,78.81
2023-04-16T04:15:08.844Z,79.24
2023-04-16T04:17:35.321Z,78.75
2023-04-16T04:20:02.277Z,78.95
2023-04-16T04:22:28.829Z,78.69
2023-04-16T04:24:55.273Z,79.20
2023-04-16T04:27:21.740Z,79.77
2023-04-16T04:29:48.182Z,80.09
2023-04-16T04:32:14.541Z,80.38
2023-04-16T04:34:41.361Z,80.54
2023-04-16T04:37:07.853Z,80.25
2023-04-16T04:39:34.312Z,80.22
2023-04-16T04:42:00.755Z,80.30
2023-04-16T04:44:27.455Z,79.83
2023-04-16T04:46:53.862Z,80.18
2023-04-16T04:49:20.304Z,80.00
2023-04-16T04:51:46.682Z,80.06
2023-04-16T04:54:13.020Z,79.96
2023-04-16T04:56:39.415Z,79.37
2023-04-16T04:59:05.848Z,79.38
2023-04-16T05:01:32.722Z,79.94
2023-04-16T05:04:03.443Z,80.30
2023-04-16T05:06:30.092Z,80.14
2023-04-16T05:08:56.581Z,80.12
2023-04-16T05:11:24.453Z,79.71
2023-04-16T05:13:50.929Z,79.46
2023-04-16T05:16:17.419Z,79.54
2023-04-16T05:18:44.106Z,79.88
2023-04-16T05:21:10.592Z,79.51
2023-04-16T05:23:36.957Z,79.54
2023-04-16T05:26:03.681Z,79.53
2023-04-16T05:28:30.341Z,79.08
2023-04-16T05:30:56.753Z,79.27
2023-04-16T05:33:23.204Z,79.12
2023-04-16T05:35:49.695Z,79.20
2023-04-16T05:38:16.150Z,79.15
2023-04-16T05:40:42.490Z,79.54
2023-04-16T05:43:08.934Z,79.22
2023-04-16T05:45:35.325Z,78.53
2023-04-16T05:48:01.804Z,77.87
2023-04-16T05:50:29.280Z,76.30
2023-04-16T05:52:55.728Z,77.04
2023-04-16T05:55:24.236Z,77.26
2023-04-16T05:57:50.570Z,75.82
2023-04-16T06:00:17.304Z,74.70
2023-04-16T06:02:43.749Z,75.58
2023-04-16T06:05:10.190Z,76.78
2023-04-16T06:07:36.736Z,76.81
2023-04-16T06:10:03.336Z,75.72
2023-04-16T06:12:29.709Z,75.63
2023-04-16T06:14:56.089Z,75.84
2023-04-16T06:17:22.536Z,75.76
2023-04-16T06:19:48.925Z,75.75
2023-04-16T06:22:15.392Z,75.17
2023-04-16T06:24:41.763Z,75.96
2023-04-16T06:27:08.150Z,75.10
2023-04-16T06:29:41.174Z,75.27
2023-04-16T06:32:10.705Z,75.03
2023-04-16T06:34:37.660Z,74.51
2023-04-16T06:37:04.479Z,74.79
2023-04-16T06:39:31.193Z,75.18
2023-04-16T06:41:57.615Z,75.93
2023-04-16T06:44:24.114Z,76.26
2023-04-16T06:46:50.509Z,76.78
2023-04-16T06:49:16.931Z,76.90
2023-04-16T06:51:43.333Z,76.03
2023-04-16T06:54:09.783Z,75.02
2023-04-16T06:56:37.343Z,75.44
2023-04-16T06:59:04.056Z,75.53
2023-04-16T07:01:30.790Z,75.19
2023-04-16T07:03:59.861Z,74.30
2023-04-16T07:06:27.326Z,75.44
2023-04-16T07:08:53.941Z,75.26
2023-04-16T07:11:20.502Z,75.90
2023-04-16T07:13:49.229Z,76.56
2023-04-16T07:16:15.966Z,77.31
2023-04-16T07:18:43.394Z,76.94
2023-04-16T07:21:16.167Z,77.36
2023-04-16T07:23:44.297Z,76.74
2023-04-16T07:26:12.114Z,77.03
2023-04-16T07:28:39.636Z,77.17
2023-04-16T07:31:08.605Z,75.24
2023-04-16T07:33:35.087Z,75.26
2023-04-16T07:36:02.850Z,75.32
2023-04-16T07:38:29.228Z,74.52
2023-04-16T07:43:36.722Z,73.36
2023-04-16T07:46:03.190Z,73.76
2023-04-16T07:48:33.137Z,72.75
2023-04-16T07:51:00.552Z,72.61
2023-04-16T07:53:27.033Z,72.58
2023-04-16T07:55:57.219Z,73.30
2023-04-16T07:58:29.122Z,72.21
2023-04-16T08:00:55.889Z,73.34
2023-04-16T08:03:27.651Z,72.37
2023-04-16T08:05:58.034Z,73.57
2023-04-16T08:08:26.832Z,74.42
2023-04-16T08:10:53.233Z,74.67
2023-04-16T08:13:21.717Z,74.96
2023-04-16T08:15:48.104Z,74.94
2023-04-16T08:18:14.604Z,74.02
2023-04-16T08:20:41.052Z,73.70
2023-04-16T08:23:07.581Z,74.03
2023-04-16T08:25:34.882Z,74.75
2023-04-16T08:28:01.273Z,74.98
2023-04-16T08:30:27.646Z,73.24
2023-04-16T08:32:54.087Z,73.43
2023-04-16T08:35:20.978Z,74.70
2023-04-16T08:37:47.321Z,75.09
2023-04-16T08:40:14.367Z,72.35
2023-04-16T08:42:42.730Z,72.18
2023-04-16T08:45:11.424Z,71.19
2023-04-16T08:47:38.278Z,71.55
2023-04-16T08:50:04.735Z,72.86
2023-04-16T08:52:38.710Z,72.93
2023-04-16T08:55:07.186Z,73.93
2023-04-16T08:57:34.631Z,72.82
2023-04-16T09:00:01.105Z,72.67
2023-04-16T09:02:27.623Z,72.60
2023-04-16T09:04:54.422Z,70.38
2023-04-16T09:07:21.312Z,71.55
2023-04-16T09:09:49.780Z,70.08
2023-04-16T09:12:16.171Z,70.58
2023-04-16T09:14:42.543Z,70.65
2023-04-16T09:17:08.958Z,69.87
2023-04-16T09:19:35.345Z,70.79
2023-04-16T09:22:01.754Z,71.74
2023-04-16T09:24:28.392Z,72.60
2023-04-16T09:26:54.988Z,71.92
2023-04-16T09:29:21.472Z,71.60
2023-04-16T09:31:49.367Z,71.52
2023-04-16T09:34:15.800Z,70.14
2023-04-16T09:36:42.145Z,71.17
2023-04-16T09:39:08.704Z,70.76
2023-04-16T09:41:35.241Z,70.97
2023-04-16T09:44:01.636Z,71.54
2023-04-16T09:46:28.270Z,71.85
2023-04-16T09:48:56.796Z,70.76
2023-04-16T09:51:23.192Z,69.58
2023-04-16T09:53:49.571Z,69.47
2023-04-16T09:56:16.233Z,68.70
2023-04-16T09:58:44.974Z,69.18
2023-04-16T10:01:12.382Z,68.60
2023-04-16T10:03:39.054Z,66.91
2023-04-16T10:06:05.807Z,68.24
2023-04-16T10:08:32.311Z,68.01
2023-04-16T10:10:58.719Z,65.95
2023-04-16T10:13:25.105Z,66.82
2023-04-16T10:15:52.467Z,66.67
2023-04-16T10:18:19.060Z,66.75
2023-04-16T10:20:45.447Z,67.58
2023-04-16T10:23:11.786Z,67.58
2023-04-16T10:25:39.181Z,68.83
2023-04-16T10:28:05.532Z,65.87
2023-04-16T10:30:32.096Z,64.81
2023-04-16T10:33:00.558Z,66.23
2023-04-16T10:35:27.255Z,65.34
2023-04-16T10:37:53.876Z,66.01
2023-04-16T10:40:20.319Z,64.24
2023-04-16T10:42:46.674Z,62.77
2023-04-16T10:45:13.067Z,62.95
2023-04-16T10:47:39.531Z,62.58
2023-04-16T10:50:05.961Z,61.40
2023-04-16T10:52:32.407Z,61.23
2023-04-16T10:54:58.749Z,59.76
2023-04-16T10:57:25.117Z,61.19
2023-04-16T10:59:51.470Z,60.69
2023-04-16T11:02:18.209Z,62.04
2023-04-16T11:04:45.223Z,61.74
2023-04-16T11:07:11.730Z,62.04
2023-04-16T11:09:39.568Z,63.32
2023-04-16T11:12:05.955Z,62.17
2023-04-16T11:14:32.307Z,62.35
2023-04-16T11:16:59.186Z,62.02
2023-04-16T11:19:25.813Z,62.40
2023-04-16T11:21:52.163Z,62.30
2023-04-16T11:24:18.706Z,62.37
2023-04-16T11:26:45.069Z,62.46
2023-04-16T11:29:11.651Z,64.07
2023-04-16T11:31:38.213Z,61.85
2023-04-16T11:34:04.748Z,62.22
2023-04-16T11:36:33.768Z,60.05
2023-04-16T11:39:01.314Z,59.83
2023-04-16T11:41:28.813Z,61.94
2023-04-16T11:43:55.339Z,62.46
2023-04-16T11:46:27.374Z,62.36
2023-04-16T11:48:57.324Z,61.35
2023-04-16T11:51:24.353Z,61.83
2023-04-16T11:53:51.822Z,61.20
2023-04-16T11:56:18.226Z,63.26
2023-04-16T11:58:44.597Z,63.87
2023-04-16T12:01:11.252Z,62.85
2023-04-16T12:03:37.959Z,63.03
2023-04-16T12:06:04.546Z,63.39
2023-04-16T12:08:30.934Z,63.36
2023-04-16T12:10:57.398Z,62.25
2023-04-16T12:13:23.789Z,62.13
2023-04-16T12:15:50.624Z,64.05
2023-04-16T12:18:17.106Z,63.75
2023-04-16T12:20:43.533Z,64.55
2023-04-16T12:23:10.302Z,65.52
2023-04-16T12:25:37.014Z,65.11
2023-04-16T12:28:03.405Z,65.70
2023-04-16T12:30:29.915Z,64.32
2023-04-16T12:32:57.970Z,63.31
2023-04-16T12:35:25.455Z,63.52
2023-04-16T12:37:51.806Z,66.00
2023-04-16T12:40:18.314Z,64.73
2023-04-16T12:42:44.703Z,64.07
2023-04-16T12:45:12.218Z,65.81
2023-04-16T12:47:39.356Z,66.26
2023-04-16T12:50:08.598Z,65.79
2023-04-16T12:52:35.207Z,63.88
2023-04-16T12:55:01.672Z,62.71
2023-04-16T12:57:28.238Z,62.63
2023-04-16T12:59:55.631Z,64.35
2023-04-16T13:02:24.419Z,64.43
2023-04-16T13:04:51.114Z,64.99
2023-04-16T13:07:18.006Z,63.67
2023-04-16T13:09:45.421Z,64.29
2023-04-16T13:12:11.886Z,64.66
2023-04-16T13:14:38.379Z,65.40
2023-04-16T13:17:04.752Z,66.40
2023-04-16T13:19:31.087Z,66.27
2023-04-16T13:21:58.555Z,66.60
2023-04-16T13:24:25.840Z,68.18
2023-04-16T13:26:52.322Z,67.60
2023-04-16T13:29:18.796Z,66.43
2023-04-16T13:31:45.248Z,66.08
2023-04-16T13:34:11.683Z,67.03
2023-04-16T13:36:38.073Z,67.48
2023-04-16T13:39:05.513Z,67.65
2023-04-16T13:41:32.045Z,66.85
2023-04-16T13:43:58.596Z,67.64
2023-04-16T13:46:25.273Z,67.97
2023-04-16T13:48:51.852Z,68.03
2023-04-16T13:51:18.412Z,70.00
2023-04-16T13:53:44.770Z,69.65
2023-04-16T13:56:11.305Z,70.51
2023-04-16T13:58:37.725Z,71.23
2023-04-16T14:01:04.292Z,71.65
2023-04-16T14:03:30.694Z,71.86
2023-04-16T14:05:57.097Z,71.01
2023-04-16T14:08:28.513Z,72.56
2023-04-16T14:10:55.749Z,72.61
2023-04-16T14:13:22.154Z,71.96
2023-04-16T14:15:48.910Z,71.72
2023-04-16T14:18:15.339Z,71.73
2023-04-16T14:20:44.128Z,71.36
2023-04-16T14:23:10.486Z,71.22
2023-04-16T14:25:37.038Z,72.74
2023-04-16T14:28:03.387Z,72.06
2023-04-16T14:30:29.949Z,72.62
2023-04-16T14:32:56.705Z,73.10
2023-04-16T14:35:23.224Z,72.93
2023-04-16T14:37:56.873Z,73.35
2023-04-16T14:40:25.738Z,73.26
2023-04-16T14:42:59.440Z,73.20
2023-04-16T14:45:26.228Z,73.12
2023-04-16T14:47:52.752Z,72.69
2023-04-16T14:50:19.188Z,72.80
2023-04-16T14:52:48.435Z,72.45
2023-04-16T14:55:14.767Z,72.80
2023-04-16T14:57:41.400Z,72.85
2023-04-16T15:00:07.816Z,72.94
2023-04-16T15:02:34.470Z,72.57
2023-04-16T15:05:03.396Z,72.71
2023-04-16T15:07:29.799Z,72.58
2023-04-16T15:09:58.199Z,72.48
2023-04-16T15:12:29.883Z,72.33
2023-04-16T15:14:56.394Z,72.56
2023-04-16T15:17:23.143Z,72.24
2023-04-16T15:19:49.687Z,72.14
2023-04-16T15:22:16.133Z,72.23
2023-04-16T15:24:42.755Z,72.03
2023-04-16T15:27:11.188Z,72.14
2023-04-16T15:29:38.696Z,71.83
2023-04-16T15:32:05.588Z,72.25
2023-04-16T15:34:32.306Z,71.36
2023-04-16T15:36:59.140Z,71.91
2023-04-16T15:39:25.644Z,72.29
2023-04-16T15:42:01.164Z,71.24
2023-04-16T15:44:28.836Z,72.76
2023-04-16T15:46:57.394Z,72.61
2023-04-16T15:49:23.915Z,72.75
2023-04-16T15:51:50.488Z,73.01
2023-04-16T15:54:16.972Z,72.92
2023-04-16T15:56:43.312Z,72.59
2023-04-16T15:59:13.090Z,73.01
2023-04-16T16:01:39.558Z,73.75
2023-04-16T16:04:06.058Z,73.36
2023-04-16T16:06:32.464Z,74.77
2023-04-16T16:08:58.812Z,74.83
2023-04-16T16:11:25.160Z,74.35
2023-04-16T16:13:51.542Z,75.21
2023-04-16T16:16:18.011Z,73.88
2023-04-16T16:18:44.588Z,73.33
2023-04-16T16:21:11.367Z,74.87
2023-04-16T16:23:37.757Z,74.24
2023-04-16T16:26:04.169Z,74.92
2023-04-16T16:28:30.581Z,73.11
2023-04-16T16:30:59.775Z,73.82
2023-04-16T16:33:26.170Z,74.00
2023-04-16T16:35:52.558Z,72.93
2023-04-16T16:38:20.188Z,72.68
2023-04-16T16:40:47.809Z,73.61
2023-04-16T16:43:14.402Z,74.33
2023-04-16T16:45:40.826Z,73.84
2023-04-16T16:48:07.254Z,74.03
2023-04-16T16:50:33.677Z,73.72
2023-04-16T16:53:01.112Z,73.25
2023-04-16T16:55:27.491Z,73.72
2023-04-16T16:57:53.999Z,73.90
2023-04-16T17:00:20.473Z,74.37
2023-04-16T17:02:47.401Z,75.56
2023-04-16T17:05:13.971Z,75.35
2023-04-16T17:07:40.715Z,75.78
2023-04-16T17:10:07.620Z,76.37
2023-04-16T17:12:34.118Z,76.82
2023-04-16T17:15:00.715Z,76.25
2023-04-16T17:17:27.239Z,75.86
2023-04-16T17:19:54.934Z,75.86
2023-04-16T17:22:21.862Z,75.72
2023-04-16T17:24:48.734Z,76.31
2023-04-16T17:27:15.430Z,76.25
2023-04-16T17:29:41.979Z,76.36
2023-04-16T17:32:08.500Z,76.41
2023-04-16T17:34:35.422Z,76.54
2023-04-16T17:37:02.902Z,76.92
2023-04-16T17:39:29.603Z,76.85
2023-04-16T17:41:58.663Z,76.46
2023-04-16T17:44:26.449Z,76.63
2023-04-16T17:46:54.683Z,76.71
2023-04-16T17:49:21.145Z,76.74
2023-04-16T17:51:48.054Z,77.35
2023-04-16T17:54:14.727Z,77.35
2023-04-16T17:56:42.234Z,77.60
2023-04-16T17:59:08.881Z,76.90
2023-04-16T18:01:35.324Z,76.64
2023-04-16T18:04:02.075Z,76.32
2023-04-16T18:06:30.830Z,76.37
2023-04-16T18:08:57.505Z,75.21
2023-04-16T18:11:23.998Z,75.14
2023-04-16T18:13:50.386Z,74.98
2023-04-16T18:16:16.984Z,75.55
2023-04-16T18:18:43.383Z,75.47
2023-04-16T18:21:09.817Z,75.42
2023-04-16T18:23:37.429Z,75.59
2023-04-16T18:26:03.807Z,75.32
2023-04-16T18:28:30.720Z,75.26
2023-04-16T18:30:59.150Z,74.99
2023-04-16T18:33:50.062Z,75.49
2023-04-16T18:36:12.867Z,74.96
2023-04-16T18:38:49.486Z,74.95
2023-04-16T18:41:19.647Z,74.88
2023-04-16T18:43:46.122Z,74.13
2023-04-16T18:46:12.652Z,74.61
2023-04-16T18:48:39.073Z,74.93
2023-04-16T18:51:05.835Z,76.00
2023-04-16T18:53:32.174Z,75.80
2023-04-16T18:55:58.665Z,75.80
2023-04-16T18:58:25.081Z,75.65
2023-04-16T19:00:53.457Z,76.24
2023-04-16T19:03:19.947Z,75.98
2023-04-16T19:05:46.618Z,75.57
2023-04-16T19:08:13.331Z,75.51
2023-04-16T19:10:39.675Z,75.37
2023-04-16T19:13:07.019Z,75.66
2023-04-16T19:15:34.908Z,75.64
2023-04-16T19:18:01.533Z,76.04
2023-04-16T19:20:27.973Z,76.40
2023-04-16T19:22:54.300Z,76.80
2023-04-16T19:25:20.784Z,77.29
2023-04-16T19:27:47.294Z,77.35
2023-04-16T19:30:13.870Z,77.27
2023-04-16T19:32:42.559Z,76.94
2023-04-16T19:35:08.969Z,77.44
2023-04-16T19:37:35.576Z,77.88
2023-04-16T19:40:02.033Z,77.39
2023-04-16T19:42:30.529Z,77.57
2023-04-16T19:44:56.919Z,77.79
2023-04-16T19:47:23.304Z,77.90
2023-04-16T19:49:50.000Z,77.41
2023-04-16T19:52:16.711Z,78.27
2023-04-16T19:54:43.247Z,77.59
2023-04-16T19:57:09.666Z,77.98
2023-04-16T19:59:36.350Z,78.34
2023-04-16T20:02:02.876Z,78.48
2023-04-16T20:04:30.897Z,77.75
2023-04-16T20:06:57.653Z,77.87
2023-04-16T20:09:27.909Z,77.54
2023-04-16T20:11:56.552Z,77.70
2023-04-16T20:14:23.131Z,77.35
2023-04-16T20:16:49.637Z,77.68
2023-04-16T20:19:18.181Z,77.75
2023-04-16T20:21:44.645Z,77.33
2023-04-16T20:24:11.314Z,77.67
2023-04-16T20:26:38.234Z,77.71
2023-04-16T20:29:06.782Z,77.64
2023-04-16T20:31:33.271Z,77.59
2023-04-16T20:35:01.099Z,77.35
2023-04-16T20:36:47.771Z,77.70
2023-04-16T20:39:14.896Z,77.65
2023-04-16T20:41:41.344Z,77.79
2023-04-16T20:44:07.787Z,77.57
2023-04-16T20:46:37.586Z,77.50
2023-04-16T20:49:05.247Z,78.38
2023-04-16T20:51:32.022Z,77.96
2023-04-16T20:53:58.562Z,78.02
2023-04-16T20:56:25.080Z,78.40
2023-04-16T20:58:51.609Z,78.23
2023-04-16T21:01:18.385Z,77.65
2023-04-16T21:03:45.501Z,77.90
2023-04-16T21:06:12.108Z,77.76
2023-04-16T21:08:38.827Z,77.86
2023-04-16T21:11:05.589Z,77.87
2023-04-16T21:13:32.519Z,78.38
2023-04-16T21:16:01.487Z,77.86
2023-04-16T21:18:30.785Z,77.37
2023-04-16T21:20:57.709Z,77.67
2023-04-16T21:23:24.344Z,77.65
2023-04-16T21:25:53.470Z,77.88
2023-04-16T21:28:19.986Z,78.20
2023-04-16T21:30:46.664Z,78.42
2023-04-16T21:33:15.655Z,77.99
2023-04-16T21:35:42.054Z,78.25
2023-04-16T21:38:08.500Z,78.87
2023-04-16T21:40:34.890Z,79.34
2023-04-16T21:43:01.276Z,78.57
2023-04-16T21:45:29.389Z,78.77
2023-04-16T21:47:56.879Z,79.21
2023-04-16T21:50:25.580Z,78.02
2023-04-16T21:52:52.238Z,77.70
2023-04-16T21:55:18.891Z,77.12
2023-04-16T21:57:45.252Z,77.42
2023-04-16T22:00:11.614Z,78.08
2023-04-16T22:02:38.245Z,77.35
2023-04-16T22:05:04.659Z,77.61
2023-04-16T22:07:31.044Z,77.45
2023-04-16T22:09:57.475Z,77.62
2023-04-16T22:12:23.873Z,77.48
2023-04-16T22:17:22.123Z,77.33
2023-04-16T22:19:48.492Z,77.24
2023-04-16T22:22:14.893Z,77.64
2023-04-16T22:24:41.270Z,78.35
2023-04-16T22:27:07.679Z,78.34
2023-04-16T22:29:34.039Z,78.89
2023-04-16T22:32:00.995Z,78.24
2023-04-16T22:34:28.519Z,78.37
2023-04-16T22:36:55.149Z,77.79
2023-04-16T22:39:21.585Z,77.71
2023-04-16T22:41:48.337Z,77.45
2023-04-16T22:44:16.897Z,77.36
2023-04-16T22:46:44.408Z,78.15
2023-04-16T22:49:11.107Z,78.37
2023-04-16T22:51:38.194Z,78.35
2023-04-16T22:54:04.524Z,78.50
2023-04-16T22:56:30.883Z,77.88
2023-04-16T22:58:57.577Z,78.75
2023-04-16T23:01:25.377Z,77.95
2023-04-16T23:03:51.908Z,77.88
2023-04-16T23:06:18.553Z,78.62
2023-04-16T23:08:45.098Z,78.55
2023-04-16T23:11:11.875Z,78.52
2023-04-16T23:13:38.376Z,79.46
2023-04-16T23:16:04.922Z,79.41
2023-04-16T23:18:31.375Z,79.54
2023-04-16T23:20:57.931Z,79.17
2023-04-16T23:23:24.514Z,79.03
2023-04-16T23:25:51.109Z,79.22
2023-04-16T23:28:17.543Z,79.16
2023-04-16T23:30:43.975Z,79.78
2023-04-16T23:33:10.354Z,79.56
2023-04-16T23:35:39.017Z,79.12
2023-04-16T23:38:05.515Z,79.59
2023-04-16T23:40:31.905Z,78.95
2023-04-16T23:42:58.294Z,79.30
2023-04-16T23:45:24.728Z,79.41
2023-04-16T23:47:51.177Z,79.15
2023-04-16T23:50:17.610Z,78.65
2023-04-16T23:52:44.312Z,78.82
2023-04-16T23:55:11.570Z,79.46
2023-04-16T23:57:37.946Z,79.35
